Emmen, Netherlands
Current Conditions -  °F | °C
As of 8:55 PM on Sunday 25 Jan 2015 (Local Time) from EHGG Reporting Station
Haze Haze  
Wind Chill: 32°   Ceiling: Unl
Heat Index: 37°   Visibility: 2.7mi
Dew Point: 37°   Wind: 7mph
Humidity: 100%   Direction: 210°SSW
Pressure: 30.27"   Gusts: NA
Location:  52.78°N, 6.91°E
Report Text: EHGG 251955Z AUTO 21006KT 4400 BR SCT032 03/03 Q1025 R23/220195NOSIG
Loading
Personal Weather Stations






























Interactive Weather Map New forecast layout! Learn more

10-Day Weather Forecast

Advertisements
Track Severe Weather on mobile